DLH205 SPJC-MMMX
Flight info
| Callsign | DLH205 |
|---|---|
| Flight time | N/A |
| Altitude | 36000 |
| Route | TELE2F ISREN DCT UGEMA DCT ITALU DCT AUTLA DCT OAX DCT KODEK UT157 LARLO LARL4A |
| Aircraft | A388/J-SADE2E3FGHIJ3J4J5M1RWXY/LB1D1 |
Departure
| Time | 2026-05-07 20:28 |
|---|---|
| Airport | Jorge Chávez International Airport (SPJC) |
Arrival
| Time | N/A |
|---|---|
| Airport | Mexico City Benito Juárez International Airport (MMMX) |
| Time | Latitude | Longitude | Altitude | Speed | Heading |
|---|---|---|---|---|---|
| 2026-05-07 20:05 | -12.02795 | -77.11851 | 124 ft | 0 kts | 65° |
| 2026-05-07 20:11 | -12.02799 | -77.11858 | 124 ft | 2 kts | 57° |
| 2026-05-07 20:11 | -12.02806 | -77.11869 | 124 ft | 0 kts | 59° |
| 2026-05-07 20:11 | -12.02812 | -77.11880 | 124 ft | 2 kts | 39° |
| 2026-05-07 20:12 | -12.02826 | -77.11887 | 124 ft | 2 kts | 359° |
| 2026-05-07 20:12 | -12.02837 | -77.11887 | 124 ft | 1 kts | 336° |
| 2026-05-07 20:12 | -12.02842 | -77.11885 | 124 ft | 0 kts | 334° |
| 2026-05-07 20:20 | -12.02835 | -77.11888 | 124 ft | 4 kts | 334° |
| 2026-05-07 20:21 | -12.02787 | -77.11912 | 124 ft | 10 kts | 334° |
| 2026-05-07 20:21 | -12.02719 | -77.11945 | 124 ft | 12 kts | 334° |
| 2026-05-07 20:21 | -12.02641 | -77.11994 | 124 ft | 14 kts | 311° |
| 2026-05-07 20:21 | -12.02603 | -77.12095 | 124 ft | 17 kts | 280° |
| 2026-05-07 20:22 | -12.02598 | -77.12214 | 124 ft | 16 kts | 282° |
| 2026-05-07 20:22 | -12.02514 | -77.12287 | 124 ft | 18 kts | 334° |
| 2026-05-07 20:22 | -12.02400 | -77.12343 | 124 ft | 19 kts | 334° |
| 2026-05-07 20:22 | -12.02277 | -77.12403 | 124 ft | 20 kts | 334° |
| 2026-05-07 20:23 | -12.02146 | -77.12468 | 124 ft | 22 kts | 334° |
| 2026-05-07 20:23 | -12.02006 | -77.12538 | 124 ft | 23 kts | 333° |
| 2026-05-07 20:23 | -12.01857 | -77.12612 | 124 ft | 25 kts | 334° |
| 2026-05-07 20:23 | -12.01702 | -77.12687 | 124 ft | 25 kts | 334° |
| 2026-05-07 20:24 | -12.01549 | -77.12763 | 124 ft | 25 kts | 334° |
| 2026-05-07 20:24 | -12.01396 | -77.12839 | 124 ft | 24 kts | 333° |
| 2026-05-07 20:24 | -12.01243 | -77.12911 | 124 ft | 24 kts | 336° |
| 2026-05-07 20:24 | -12.01089 | -77.12981 | 124 ft | 24 kts | 335° |
| 2026-05-07 20:25 | -12.00938 | -77.13052 | 124 ft | 23 kts | 334° |
| 2026-05-07 20:25 | -12.00798 | -77.13120 | 124 ft | 22 kts | 334° |
| 2026-05-07 20:25 | -12.00676 | -77.13183 | 124 ft | 16 kts | 327° |
| 2026-05-07 20:25 | -12.00646 | -77.13278 | 124 ft | 14 kts | 258° |
| 2026-05-07 20:26 | -12.00693 | -77.13347 | 124 ft | 11 kts | 202° |
| 2026-05-07 20:26 | -12.00752 | -77.13336 | 124 ft | 4 kts | 154° |
| 2026-05-07 20:26 | -12.00760 | -77.13332 | 124 ft | 0 kts | 154° |
| 2026-05-07 20:27 | -12.00761 | -77.13332 | 124 ft | 1 kts | 154° |
| 2026-05-07 20:27 | -12.00936 | -77.13246 | 124 ft | 61 kts | 154° |
| 2026-05-07 20:27 | -12.01531 | -77.12953 | 124 ft | 129 kts | 154° |
| 2026-05-07 20:27 | -12.02525 | -77.12463 | 277 ft | 182 kts | 156° |
| 2026-05-07 20:28 | -12.03698 | -77.11892 | 1009 ft | 199 kts | 156° |
| 2026-05-07 20:28 | -12.05058 | -77.11427 | 1559 ft | 215 kts | 176° |
| 2026-05-07 20:28 | -12.06547 | -77.11507 | 2105 ft | 219 kts | 186° |
| 2026-05-07 20:28 | -12.08017 | -77.11866 | 2588 ft | 223 kts | 205° |
| 2026-05-07 20:29 | -12.09343 | -77.12699 | 3118 ft | 225 kts | 210° |
| 2026-05-07 20:29 | -12.10698 | -77.13493 | 3625 ft | 227 kts | 206° |
| 2026-05-07 20:29 | -12.12092 | -77.14267 | 4021 ft | 232 kts | 207° |
| 2026-05-07 20:29 | -12.13536 | -77.15092 | 4559 ft | 253 kts | 211° |
| 2026-05-07 20:30 | -12.14804 | -77.16405 | 5263 ft | 272 kts | 238° |
| 2026-05-07 20:30 | -12.15408 | -77.18235 | 5925 ft | 279 kts | 265° |
| 2026-05-07 20:30 | -12.15367 | -77.20212 | 6598 ft | 282 kts | 272° |
| 2026-05-07 20:30 | -12.15286 | -77.22220 | 7358 ft | 285 kts | 270° |
| 2026-05-07 20:31 | -12.15222 | -77.24231 | 8103 ft | 287 kts | 276° |
| 2026-05-07 20:31 | -12.14580 | -77.26151 | 8678 ft | 293 kts | 305° |
| 2026-05-07 20:31 | -12.13102 | -77.27609 | 9289 ft | 312 kts | 320° |
| 2026-05-07 20:31 | -12.11324 | -77.29061 | 9837 ft | 348 kts | 323° |
| 2026-05-07 20:32 | -12.09242 | -77.30538 | 10401 ft | 385 kts | 326° |
| 2026-05-07 20:32 | -12.07008 | -77.32119 | 10947 ft | 398 kts | 325° |
| 2026-05-07 20:32 | -12.04714 | -77.33749 | 11573 ft | 404 kts | 325° |
| 2026-05-07 20:32 | -12.02408 | -77.35383 | 12203 ft | 408 kts | 325° |
| 2026-05-07 20:33 | -12.00079 | -77.37034 | 12832 ft | 412 kts | 326° |
| 2026-05-07 20:33 | -11.97734 | -77.38696 | 13461 ft | 414 kts | 325° |
| 2026-05-07 20:33 | -11.95372 | -77.40370 | 14089 ft | 418 kts | 326° |
| 2026-05-07 20:33 | -11.92989 | -77.42059 | 14717 ft | 422 kts | 326° |
| 2026-05-07 20:34 | -11.90584 | -77.43763 | 15347 ft | 426 kts | 326° |
| 2026-05-07 20:34 | -11.88139 | -77.45495 | 15979 ft | 429 kts | 326° |
| 2026-05-07 20:34 | -11.85689 | -77.47229 | 16550 ft | 433 kts | 326° |
| 2026-05-07 20:34 | -11.83218 | -77.48978 | 17048 ft | 437 kts | 326° |
| 2026-05-07 20:35 | -11.80726 | -77.50743 | 17550 ft | 440 kts | 326° |
| 2026-05-07 20:35 | -11.78218 | -77.52520 | 18050 ft | 443 kts | 326° |
| 2026-05-07 20:35 | -11.75597 | -77.54176 | 18553 ft | 446 kts | 330° |
| 2026-05-07 20:35 | -11.72936 | -77.55789 | 19059 ft | 449 kts | 329° |
| 2026-05-07 20:36 | -11.70248 | -77.57441 | 19566 ft | 452 kts | 329° |
| 2026-05-07 20:36 | -11.67561 | -77.59090 | 20068 ft | 455 kts | 329° |
| 2026-05-07 20:36 | -11.64858 | -77.60749 | 20571 ft | 458 kts | 329° |
| 2026-05-07 20:36 | -11.62136 | -77.62418 | 21074 ft | 460 kts | 329° |
| 2026-05-07 20:37 | -11.59401 | -77.64095 | 21577 ft | 463 kts | 329° |
| 2026-05-07 20:37 | -11.56646 | -77.65785 | 22078 ft | 466 kts | 329° |
| 2026-05-07 20:37 | -11.53875 | -77.67484 | 22578 ft | 469 kts | 329° |
| 2026-05-07 20:37 | -11.51062 | -77.69207 | 23082 ft | 472 kts | 329° |
| 2026-05-07 20:38 | -11.48255 | -77.70927 | 23582 ft | 475 kts | 329° |
| 2026-05-07 20:38 | -11.45429 | -77.72658 | 24083 ft | 478 kts | 329° |
| 2026-05-07 20:38 | -11.42585 | -77.74399 | 24586 ft | 480 kts | 329° |
| 2026-05-07 20:38 | -11.39736 | -77.76143 | 25088 ft | 481 kts | 329° |
| 2026-05-07 20:39 | -11.36883 | -77.77889 | 25590 ft | 482 kts | 329° |
| 2026-05-07 20:39 | -11.34026 | -77.79638 | 26092 ft | 483 kts | 328° |
| 2026-05-07 20:39 | -11.31139 | -77.81404 | 26597 ft | 484 kts | 328° |
| 2026-05-07 20:39 | -11.28264 | -77.83162 | 27092 ft | 485 kts | 328° |
| 2026-05-07 20:40 | -11.25384 | -77.84923 | 27543 ft | 487 kts | 328° |
| 2026-05-07 20:40 | -11.22492 | -77.86692 | 27996 ft | 488 kts | 328° |
| 2026-05-07 20:40 | -11.19595 | -77.88463 | 28448 ft | 490 kts | 328° |
| 2026-05-07 20:40 | -11.16689 | -77.90239 | 28847 ft | 490 kts | 328° |
| 2026-05-07 20:41 | -11.13787 | -77.92012 | 29216 ft | 489 kts | 328° |
| 2026-05-07 20:41 | -11.10875 | -77.93790 | 29588 ft | 487 kts | 327° |
| 2026-05-07 20:41 | -11.07994 | -77.95549 | 29956 ft | 484 kts | 327° |
| 2026-05-07 20:41 | -11.05091 | -77.97236 | 30307 ft | 483 kts | 330° |
| 2026-05-07 20:42 | -11.02119 | -77.98794 | 30553 ft | 483 kts | 331° |
| 2026-05-07 20:42 | -10.99150 | -78.00352 | 30799 ft | 482 kts | 330° |
| 2026-05-07 20:42 | -10.96190 | -78.01907 | 31045 ft | 481 kts | 330° |
| 2026-05-07 20:42 | -10.93239 | -78.03456 | 31289 ft | 480 kts | 330° |
| 2026-05-07 20:43 | -10.90272 | -78.05013 | 31535 ft | 479 kts | 330° |
| 2026-05-07 20:43 | -10.87329 | -78.06557 | 31779 ft | 478 kts | 330° |
| 2026-05-07 20:43 | -10.84395 | -78.08096 | 32024 ft | 477 kts | 330° |
| 2026-05-07 20:43 | -10.81464 | -78.09633 | 32267 ft | 476 kts | 330° |
| 2026-05-07 20:44 | -10.78542 | -78.11164 | 32510 ft | 475 kts | 329° |
| 2026-05-07 20:44 | -10.75619 | -78.12696 | 32753 ft | 474 kts | 329° |
| 2026-05-07 20:44 | -10.72707 | -78.14223 | 32996 ft | 474 kts | 329° |
| 2026-05-07 20:44 | -10.69779 | -78.15757 | 33241 ft | 472 kts | 329° |
| 2026-05-07 20:45 | -10.66879 | -78.17275 | 33482 ft | 471 kts | 329° |
| 2026-05-07 20:45 | -10.63987 | -78.18790 | 33723 ft | 470 kts | 329° |
| 2026-05-07 20:45 | -10.61096 | -78.20303 | 33965 ft | 469 kts | 329° |
| 2026-05-07 20:45 | -10.58218 | -78.21811 | 34206 ft | 468 kts | 329° |
| 2026-05-07 20:46 | -10.55344 | -78.23316 | 34447 ft | 467 kts | 329° |
| 2026-05-07 20:46 | -10.52479 | -78.24816 | 34687 ft | 465 kts | 329° |
| 2026-05-07 20:46 | -10.49604 | -78.26320 | 34929 ft | 464 kts | 329° |
| 2026-05-07 20:46 | -10.46754 | -78.27810 | 35169 ft | 463 kts | 329° |
| 2026-05-07 20:47 | -10.43917 | -78.29294 | 35409 ft | 461 kts | 329° |
| 2026-05-07 20:47 | -10.41086 | -78.30774 | 35647 ft | 460 kts | 329° |
| 2026-05-07 20:47 | -10.38259 | -78.32252 | 35811 ft | 460 kts | 329° |
| 2026-05-07 20:47 | -10.35427 | -78.33732 | 35924 ft | 460 kts | 329° |
| 2026-05-07 20:48 | -10.32601 | -78.35208 | 36034 ft | 460 kts | 329° |
| 2026-05-07 20:48 | -10.26913 | -78.38180 | 36044 ft | 461 kts | 329° |
| 2026-05-07 20:49 | -10.21211 | -78.41158 | 36054 ft | 469 kts | 329° |
| 2026-05-07 20:49 | -10.15351 | -78.44216 | 36053 ft | 483 kts | 329° |
| 2026-05-07 20:50 | -10.09306 | -78.47370 | 36051 ft | 494 kts | 329° |
| 2026-05-07 20:50 | -10.03461 | -78.50928 | 36052 ft | 493 kts | 323° |
| 2026-05-07 20:51 | -9.97815 | -78.54838 | 36048 ft | 497 kts | 322° |
| 2026-05-07 20:51 | -9.92119 | -78.58806 | 36043 ft | 501 kts | 322° |
| 2026-05-07 20:52 | -9.86386 | -78.62797 | 36042 ft | 501 kts | 322° |
| 2026-05-07 20:52 | -9.80669 | -78.66777 | 36053 ft | 503 kts | 322° |
| 2026-05-07 20:53 | -9.74927 | -78.70771 | 36050 ft | 504 kts | 322° |
| 2026-05-07 20:53 | -9.69158 | -78.74784 | 36015 ft | 504 kts | 322° |
| 2026-05-07 20:54 | -9.63404 | -78.78784 | 35975 ft | 505 kts | 322° |
| 2026-05-07 20:54 | -9.57644 | -78.82786 | 35941 ft | 505 kts | 322° |
| 2026-05-07 20:55 | -9.51886 | -78.86785 | 35940 ft | 505 kts | 322° |
| 2026-05-07 20:55 | -9.46105 | -78.90799 | 35940 ft | 505 kts | 322° |
| 2026-05-07 20:56 | -9.40346 | -78.94796 | 35940 ft | 505 kts | 322° |
| 2026-05-07 20:56 | -9.34585 | -78.98792 | 35943 ft | 505 kts | 322° |
| 2026-05-07 20:57 | -9.28806 | -79.02800 | 35952 ft | 505 kts | 322° |
| 2026-05-07 20:57 | -9.23045 | -79.06792 | 35961 ft | 505 kts | 322° |